createdAt,value
2023-04-26T00:00:03.135Z,6.10
2023-04-26T00:01:02.837Z,6.10
2023-04-26T00:02:03.434Z,6.10
2023-04-26T00:03:03.175Z,6.10
2023-04-26T00:04:03.324Z,6.10
2023-04-26T00:05:03.202Z,6.10
2023-04-26T00:06:03.229Z,6.10
2023-04-26T00:07:03.253Z,6.10
2023-04-26T00:08:02.929Z,6.10
2023-04-26T00:09:03.581Z,6.00
2023-04-26T00:10:03.764Z,6.00
2023-04-26T00:11:03.284Z,6.00
2023-04-26T00:12:03.346Z,6.00
2023-04-26T00:13:03.314Z,6.00
2023-04-26T00:14:03.074Z,6.00
2023-04-26T00:15:03.581Z,6.00
2023-04-26T00:16:03.228Z,6.00
2023-04-26T00:17:03.019Z,6.00
2023-04-26T00:18:02.731Z,6.00
2023-04-26T00:19:03.287Z,6.00
2023-04-26T00:20:02.853Z,6.00
2023-04-26T00:21:02.787Z,6.00
2023-04-26T00:22:03.310Z,6.00
2023-04-26T00:23:02.887Z,5.90
2023-04-26T00:24:03.489Z,5.90
2023-04-26T00:25:02.969Z,5.90
2023-04-26T00:26:03.035Z,5.90
2023-04-26T00:27:03.517Z,5.90
2023-04-26T00:28:03.110Z,5.90
2023-04-26T00:29:02.720Z,5.90
2023-04-26T00:30:02.803Z,5.90
2023-04-26T00:31:02.888Z,5.90
2023-04-26T00:32:02.931Z,5.90
2023-04-26T00:33:03.453Z,5.80
2023-04-26T00:34:03.182Z,5.80
2023-04-26T00:35:03.293Z,5.80
2023-04-26T00:36:03.040Z,5.80
2023-04-26T00:37:03.002Z,5.80
2023-04-26T00:38:03.496Z,5.80
2023-04-26T00:39:02.773Z,5.80
2023-04-26T00:40:02.858Z,5.80
2023-04-26T00:41:02.981Z,5.70
2023-04-26T00:42:03.595Z,5.70
2023-04-26T00:43:03.218Z,5.70
2023-04-26T00:44:03.165Z,5.70
2023-04-26T00:45:02.666Z,5.70
2023-04-26T00:46:03.359Z,5.70
2023-04-26T00:47:02.909Z,5.70
2023-04-26T00:48:03.601Z,5.70
2023-04-26T00:49:03.502Z,5.70
2023-04-26T00:50:03.447Z,5.70
2023-04-26T00:51:02.989Z,5.70
2023-04-26T00:52:03.544Z,5.70
2023-04-26T00:53:03.574Z,5.70
2023-04-26T00:54:02.728Z,5.70
2023-04-26T00:55:03.134Z,5.70
2023-04-26T00:56:02.809Z,5.70
2023-04-26T00:57:02.918Z,5.60
2023-04-26T00:58:03.565Z,5.70
2023-04-26T00:59:03.622Z,5.60
2023-04-26T01:00:03.576Z,5.60
2023-04-26T01:01:02.691Z,5.60
2023-04-26T01:02:03.360Z,5.60
2023-04-26T01:03:03.154Z,5.60
2023-04-26T01:04:03.763Z,5.60
2023-04-26T01:05:03.395Z,5.60
2023-04-26T01:06:02.951Z,5.60
2023-04-26T01:07:03.009Z,5.60
2023-04-26T01:08:03.489Z,5.60
2023-04-26T01:09:02.965Z,5.60
2023-04-26T01:10:03.037Z,5.50
2023-04-26T01:11:03.619Z,5.60
2023-04-26T01:12:03.117Z,5.60
2023-04-26T01:13:02.734Z,5.50
2023-04-26T01:14:03.204Z,5.50
2023-04-26T01:15:02.753Z,5.50
2023-04-26T01:16:03.345Z,5.50
2023-04-26T01:17:03.021Z,5.50
2023-04-26T01:18:03.032Z,5.50
2023-04-26T01:19:02.663Z,5.50
2023-04-26T01:20:03.172Z,5.50
2023-04-26T01:21:03.532Z,5.50
2023-04-26T01:22:02.666Z,5.50
2023-04-26T01:23:02.799Z,5.50
2023-04-26T01:24:03.276Z,5.50
2023-04-26T01:25:03.304Z,5.50
2023-04-26T01:26:03.224Z,5.50
2023-04-26T01:27:02.880Z,5.50
2023-04-26T01:28:02.882Z,5.50
2023-04-26T01:29:03.420Z,5.50
2023-04-26T01:30:03.343Z,5.50
2023-04-26T01:31:02.986Z,5.50
2023-04-26T01:32:03.580Z,5.50
2023-04-26T01:33:03.334Z,5.50
2023-04-26T01:34:02.981Z,5.40
2023-04-26T01:35:03.609Z,5.40
2023-04-26T01:36:02.717Z,5.50
2023-04-26T01:37:02.691Z,5.40
2023-04-26T01:38:03.143Z,5.40
2023-04-26T01:39:02.785Z,5.40
2023-04-26T01:40:03.342Z,5.40
2023-04-26T01:41:02.973Z,5.40
2023-04-26T01:42:03.472Z,5.40
2023-04-26T01:43:03.110Z,5.40
2023-04-26T01:44:03.535Z,5.40
2023-04-26T01:45:03.282Z,5.40
2023-04-26T01:46:03.227Z,5.40
2023-04-26T01:47:02.863Z,5.40
2023-04-26T01:48:03.422Z,5.40
2023-04-26T01:49:03.018Z,5.40
2023-04-26T01:50:03.574Z,5.40
2023-04-26T01:51:03.066Z,5.40
2023-04-26T01:52:02.634Z,5.40
2023-04-26T01:53:03.238Z,5.40
2023-04-26T01:54:02.733Z,5.30
2023-04-26T01:55:03.414Z,5.30
2023-04-26T01:56:03.527Z,5.30
2023-04-26T01:57:02.895Z,5.30
2023-04-26T01:58:03.423Z,5.30
2023-04-26T01:59:03.441Z,5.30
2023-04-26T02:00:02.922Z,5.30
2023-04-26T02:01:03.568Z,5.30
2023-04-26T02:02:03.565Z,5.30
2023-04-26T02:03:02.895Z,5.30
2023-04-26T02:04:03.016Z,5.30
2023-04-26T02:05:03.528Z,5.30
2023-04-26T02:06:03.216Z,5.30
2023-04-26T02:07:03.080Z,5.30
2023-04-26T02:08:03.542Z,5.30
2023-04-26T02:09:03.155Z,5.30
2023-04-26T02:10:02.862Z,5.20
2023-04-26T02:11:03.356Z,5.30
2023-04-26T02:12:02.985Z,5.20
2023-04-26T02:13:03.441Z,5.20
2023-04-26T02:14:03.551Z,5.20
2023-04-26T02:15:03.238Z,5.20
2023-04-26T02:16:02.728Z,5.20
2023-04-26T02:17:03.493Z,5.20
2023-04-26T02:18:03.247Z,5.20
2023-04-26T02:19:02.969Z,5.20
2023-04-26T02:20:03.671Z,5.20
2023-04-26T02:21:03.157Z,5.20
2023-04-26T02:22:02.670Z,5.20
2023-04-26T02:23:03.407Z,5.10
2023-04-26T02:24:03.521Z,5.10
2023-04-26T02:25:02.788Z,5.10
2023-04-26T02:26:02.997Z,5.10
2023-04-26T02:27:02.965Z,5.10
2023-04-26T02:28:02.973Z,5.10
2023-04-26T02:29:03.500Z,5.10
2023-04-26T02:30:03.402Z,5.10
2023-04-26T02:31:02.925Z,5.00
2023-04-26T02:32:03.392Z,5.00
2023-04-26T02:33:03.067Z,5.00
2023-04-26T02:34:02.633Z,5.00
2023-04-26T02:35:03.585Z,5.00
2023-04-26T02:36:03.146Z,5.00
2023-04-26T02:37:02.717Z,5.00
2023-04-26T02:38:03.361Z,5.00
2023-04-26T02:39:03.066Z,4.90
2023-04-26T02:40:03.033Z,4.90
2023-04-26T02:41:03.085Z,4.90
2023-04-26T02:42:02.696Z,4.90
2023-04-26T02:43:02.769Z,4.90
2023-04-26T02:44:03.452Z,4.80
2023-04-26T02:45:02.989Z,4.80
2023-04-26T02:46:03.034Z,4.80
2023-04-26T02:47:03.503Z,4.80
2023-04-26T02:48:03.095Z,4.80
2023-04-26T02:49:02.901Z,4.80
2023-04-26T02:50:03.142Z,4.80
2023-04-26T02:51:03.064Z,4.70
2023-04-26T02:52:03.142Z,4.70
2023-04-26T02:53:02.769Z,4.70
2023-04-26T02:54:04.606Z,4.70
2023-04-26T02:55:03.016Z,4.60
2023-04-26T02:56:02.938Z,4.60
2023-04-26T02:57:03.487Z,4.60
2023-04-26T02:58:03.052Z,4.60
2023-04-26T02:59:02.646Z,4.60
2023-04-26T03:00:03.583Z,4.50
2023-04-26T03:01:03.089Z,4.50
2023-04-26T03:02:02.748Z,4.50
2023-04-26T03:03:03.123Z,4.50
2023-04-26T03:04:02.766Z,4.50
2023-04-26T03:05:02.888Z,4.40
2023-04-26T03:06:03.647Z,4.40
2023-04-26T03:07:03.101Z,4.40
2023-04-26T03:08:02.614Z,4.40
2023-04-26T03:09:02.638Z,4.40
2023-04-26T03:10:03.354Z,4.40
2023-04-26T03:11:03.235Z,4.30
2023-04-26T03:12:03.449Z,4.30
2023-04-26T03:13:03.081Z,4.30
2023-04-26T03:14:02.721Z,4.30
2023-04-26T03:15:03.270Z,4.30
2023-04-26T03:16:02.779Z,4.20
2023-04-26T03:17:03.464Z,4.20
2023-04-26T03:18:03.453Z,4.20
2023-04-26T03:19:02.966Z,4.20
2023-04-26T03:20:03.488Z,4.20
2023-04-26T03:21:03.040Z,4.20
2023-04-26T03:22:02.750Z,4.20
2023-04-26T03:23:02.824Z,4.20
2023-04-26T03:24:02.659Z,4.10
2023-04-26T03:25:03.042Z,4.10
2023-04-26T03:26:02.809Z,4.10
2023-04-26T03:27:03.358Z,4.10
2023-04-26T03:28:02.872Z,4.10
2023-04-26T03:29:03.399Z,4.00
2023-04-26T03:30:03.417Z,4.00
2023-04-26T03:31:02.843Z,4.00
2023-04-26T03:32:03.396Z,4.00
2023-04-26T03:33:03.551Z,4.00
2023-04-26T03:34:03.275Z,4.00
2023-04-26T03:35:02.816Z,4.00
2023-04-26T03:36:03.389Z,4.00
2023-04-26T03:37:02.854Z,3.90
2023-04-26T03:38:03.545Z,3.90
2023-04-26T03:39:02.932Z,3.90
2023-04-26T03:40:02.675Z,3.90
2023-04-26T03:41:03.633Z,3.90
2023-04-26T03:42:03.220Z,3.80
2023-04-26T03:43:02.920Z,3.80
2023-04-26T03:44:03.038Z,3.80
2023-04-26T03:45:02.788Z,3.80
2023-04-26T03:46:02.785Z,3.70
2023-04-26T03:47:03.026Z,3.70
2023-04-26T03:48:02.795Z,3.70
2023-04-26T03:49:02.785Z,3.60
2023-04-26T03:50:03.242Z,3.60
2023-04-26T03:51:02.798Z,3.60
2023-04-26T03:52:02.832Z,3.60
2023-04-26T03:53:03.371Z,3.60
2023-04-26T03:54:02.928Z,3.60
2023-04-26T03:55:02.625Z,3.50
2023-04-26T03:56:03.311Z,3.50
2023-04-26T03:57:03.170Z,3.50
2023-04-26T03:58:03.431Z,3.50
2023-04-26T03:59:03.281Z,3.50
2023-04-26T04:00:02.909Z,3.40
2023-04-26T04:01:02.614Z,3.40
2023-04-26T04:02:03.264Z,3.40
2023-04-26T04:03:02.958Z,3.40
2023-04-26T04:04:03.342Z,3.40
2023-04-26T04:05:03.218Z,3.40
2023-04-26T04:06:03.643Z,3.40
2023-04-26T04:07:03.441Z,3.40
2023-04-26T04:08:03.129Z,3.40
2023-04-26T04:09:03.637Z,3.40
2023-04-26T04:10:03.354Z,3.30
2023-04-26T04:11:03.270Z,3.30
2023-04-26T04:12:03.316Z,3.40
2023-04-26T04:13:02.782Z,3.30
2023-04-26T04:14:03.393Z,3.40
2023-04-26T04:15:02.933Z,3.30
2023-04-26T04:16:03.493Z,3.30
2023-04-26T04:17:03.199Z,3.30
2023-04-26T04:18:02.754Z,3.30
2023-04-26T04:19:02.925Z,3.30
2023-04-26T04:20:03.442Z,3.30
2023-04-26T04:21:02.977Z,3.30
2023-04-26T04:22:03.424Z,3.40
2023-04-26T04:23:03.068Z,3.30
2023-04-26T04:24:03.612Z,3.40
2023-04-26T04:25:03.341Z,3.40
2023-04-26T04:26:03.111Z,3.40
2023-04-26T04:27:02.702Z,3.40
2023-04-26T04:28:03.415Z,3.40
2023-04-26T04:29:03.193Z,3.40
2023-04-26T04:30:02.813Z,3.40
2023-04-26T04:31:03.558Z,3.40
2023-04-26T04:32:03.314Z,3.40
2023-04-26T04:33:02.970Z,3.40
2023-04-26T04:34:03.526Z,3.40
2023-04-26T04:35:03.135Z,3.40
2023-04-26T04:36:02.868Z,3.50
2023-04-26T04:37:02.712Z,3.50
2023-04-26T04:38:02.745Z,3.50
2023-04-26T04:39:02.752Z,3.50
2023-04-26T04:40:03.410Z,3.50
2023-04-26T04:41:03.092Z,3.50
2023-04-26T04:42:02.757Z,3.60
2023-04-26T04:43:03.331Z,3.60
2023-04-26T04:44:03.117Z,3.70
2023-04-26T04:45:02.653Z,3.70
2023-04-26T04:46:03.271Z,3.80
2023-04-26T04:47:03.790Z,3.90
2023-04-26T04:48:02.921Z,4.00
2023-04-26T04:49:03.045Z,4.20
2023-04-26T04:50:02.719Z,4.30
2023-04-26T04:51:03.128Z,4.50
2023-04-26T04:52:02.752Z,4.60
2023-04-26T04:53:02.891Z,4.80
2023-04-26T04:54:03.458Z,5.00
2023-04-26T04:55:03.008Z,5.10
2023-04-26T04:56:03.041Z,5.30
2023-04-26T04:57:02.663Z,5.50
2023-04-26T04:58:03.288Z,5.60
2023-04-26T04:59:02.927Z,5.80
2023-04-26T05:00:02.846Z,5.90
2023-04-26T05:01:03.365Z,6.10
2023-04-26T05:02:02.998Z,6.30
2023-04-26T05:03:03.190Z,6.40
2023-04-26T05:04:02.877Z,6.60
2023-04-26T05:05:02.971Z,6.80
2023-04-26T05:06:03.604Z,6.90
2023-04-26T05:07:02.731Z,7.00
2023-04-26T05:08:03.198Z,7.20
2023-04-26T05:09:03.577Z,7.30
2023-04-26T05:10:03.556Z,7.50
2023-04-26T05:11:03.293Z,7.60
2023-04-26T05:12:02.997Z,7.80
2023-04-26T05:13:03.089Z,8.00
2023-04-26T05:14:02.773Z,8.10
2023-04-26T05:15:03.306Z,8.20
2023-04-26T05:16:03.019Z,8.40
2023-04-26T05:17:03.227Z,8.50
2023-04-26T05:18:02.846Z,8.60
2023-04-26T05:19:03.144Z,8.80
2023-04-26T05:20:03.346Z,8.90
2023-04-26T05:21:02.807Z,9.00
2023-04-26T05:22:03.493Z,9.10
2023-04-26T05:23:03.211Z,9.30
2023-04-26T05:24:03.244Z,9.40
2023-04-26T05:25:03.189Z,9.50
2023-04-26T05:26:03.367Z,9.60
2023-04-26T05:27:02.994Z,9.70
2023-04-26T05:28:02.664Z,9.80
2023-04-26T05:29:03.239Z,9.90
2023-04-26T05:30:03.119Z,10.00
2023-04-26T05:31:02.739Z,10.10
2023-04-26T05:32:02.937Z,10.20
2023-04-26T05:33:02.865Z,10.30
2023-04-26T05:34:02.867Z,10.50
2023-04-26T05:35:02.856Z,10.50
2023-04-26T05:36:03.416Z,10.50
2023-04-26T05:37:02.929Z,10.50
2023-04-26T05:38:02.623Z,10.50
2023-04-26T05:39:03.232Z,10.50
2023-04-26T05:40:08.296Z,10.50
2023-04-26T05:41:03.200Z,10.50
2023-04-26T05:42:03.258Z,10.50
2023-04-26T05:43:03.327Z,10.40
2023-04-26T05:44:03.312Z,10.40
2023-04-26T05:45:03.065Z,10.30
2023-04-26T05:46:03.081Z,10.30
2023-04-26T05:47:02.910Z,10.20
2023-04-26T05:48:03.492Z,10.10
2023-04-26T05:49:03.289Z,10.00
2023-04-26T05:50:02.867Z,10.10
2023-04-26T05:51:02.949Z,10.10
2023-04-26T05:52:03.420Z,10.20
2023-04-26T05:53:03.434Z,10.30
2023-04-26T05:54:03.081Z,10.40
2023-04-26T05:55:02.977Z,10.50
2023-04-26T05:56:03.096Z,10.60
2023-04-26T05:57:03.622Z,10.70
2023-04-26T05:58:03.462Z,10.80
2023-04-26T05:59:03.418Z,11.00
2023-04-26T06:00:03.098Z,11.10
2023-04-26T06:01:02.694Z,11.20
2023-04-26T06:02:03.356Z,11.30
2023-04-26T06:03:03.410Z,11.40
2023-04-26T06:04:03.752Z,11.50
2023-04-26T06:05:03.649Z,11.60
2023-04-26T06:06:03.520Z,11.60
2023-04-26T06:07:03.495Z,11.70
2023-04-26T06:08:03.094Z,11.80
2023-04-26T06:09:03.187Z,11.90
2023-04-26T06:10:02.948Z,11.90
2023-04-26T06:11:02.895Z,12.00
2023-04-26T06:12:02.844Z,12.10
2023-04-26T06:13:03.425Z,12.10
2023-04-26T06:14:02.857Z,12.20
2023-04-26T06:15:03.040Z,12.20
2023-04-26T06:16:03.012Z,12.10
2023-04-26T06:17:03.006Z,12.10
2023-04-26T06:18:02.710Z,12.10
2023-04-26T06:19:03.440Z,12.00
2023-04-26T06:20:02.997Z,11.90
2023-04-26T06:21:03.650Z,11.90
2023-04-26T06:22:03.216Z,11.80
2023-04-26T06:23:02.783Z,11.70
2023-04-26T06:24:02.845Z,11.60
2023-04-26T06:25:02.845Z,11.40
2023-04-26T06:26:03.630Z,11.30
2023-04-26T06:27:03.329Z,11.10
2023-04-26T06:28:03.020Z,11.00
2023-04-26T06:29:02.894Z,10.90
2023-04-26T06:30:03.485Z,10.80
2023-04-26T06:31:03.223Z,10.70
2023-04-26T06:32:03.036Z,10.60
2023-04-26T06:33:03.284Z,10.50
2023-04-26T06:34:03.521Z,10.50
2023-04-26T06:35:03.420Z,10.50
2023-04-26T06:36:03.389Z,10.50
2023-04-26T06:37:03.217Z,10.50
2023-04-26T06:38:03.291Z,10.50
2023-04-26T06:39:02.906Z,10.60
2023-04-26T06:40:03.676Z,10.60
2023-04-26T06:41:03.127Z,10.70
2023-04-26T06:42:03.372Z,10.70
2023-04-26T06:43:03.074Z,10.70
2023-04-26T06:44:03.101Z,10.70
2023-04-26T06:45:02.728Z,10.60
2023-04-26T06:46:02.823Z,10.60
2023-04-26T06:47:02.721Z,10.50
2023-04-26T06:48:03.605Z,10.40
2023-04-26T06:49:03.577Z,10.30
2023-04-26T06:50:03.351Z,10.20
2023-04-26T06:51:03.205Z,10.10
2023-04-26T06:52:03.597Z,10.00
2023-04-26T06:53:03.272Z,9.90
2023-04-26T06:54:02.889Z,9.80
2023-04-26T06:55:03.805Z,9.70
2023-04-26T06:56:03.079Z,9.60
2023-04-26T06:57:03.192Z,9.60
2023-04-26T06:58:02.679Z,9.60
2023-04-26T06:59:03.219Z,9.70
2023-04-26T07:00:02.788Z,9.80
2023-04-26T07:01:03.405Z,9.90
2023-04-26T07:02:03.183Z,10.00
2023-04-26T07:03:03.801Z,10.10
2023-04-26T07:04:02.812Z,10.10
2023-04-26T07:05:02.796Z,10.10
2023-04-26T07:06:02.729Z,10.10
2023-04-26T07:07:02.786Z,10.00
2023-04-26T07:08:03.393Z,10.00
2023-04-26T07:09:03.274Z,9.90
2023-04-26T07:10:03.414Z,9.80
2023-04-26T07:11:03.806Z,9.80
2023-04-26T07:12:03.182Z,9.70
2023-04-26T07:13:02.690Z,9.60
2023-04-26T07:14:03.290Z,9.50
2023-04-26T07:15:03.132Z,9.40
2023-04-26T07:16:03.116Z,9.40
2023-04-26T07:17:02.969Z,9.30
2023-04-26T07:18:02.913Z,9.30
2023-04-26T07:19:03.712Z,9.30
2023-04-26T07:20:03.474Z,9.40
2023-04-26T07:21:03.071Z,9.50
2023-04-26T07:22:02.707Z,9.60
2023-04-26T07:23:03.071Z,9.70
2023-04-26T07:24:02.815Z,9.80
2023-04-26T07:25:03.464Z,9.90
2023-04-26T07:26:03.118Z,9.90
2023-04-26T07:27:02.794Z,9.90
2023-04-26T07:28:03.362Z,10.00
2023-04-26T07:29:02.954Z,9.90
2023-04-26T07:30:03.529Z,9.90
2023-04-26T07:31:03.142Z,9.80
2023-04-26T07:32:03.656Z,9.70
2023-04-26T07:33:03.415Z,9.60
2023-04-26T07:34:03.270Z,9.50
2023-04-26T07:35:03.081Z,9.40
2023-04-26T07:36:02.780Z,9.40
2023-04-26T07:37:02.907Z,9.40
2023-04-26T07:38:03.489Z,9.50
2023-04-26T07:39:03.509Z,9.50
2023-04-26T07:40:02.826Z,9.60
2023-04-26T07:41:03.083Z,9.70
2023-04-26T07:42:02.738Z,9.80
2023-04-26T07:43:03.243Z,9.90
2023-04-26T07:44:03.052Z,9.90
2023-04-26T07:45:03.607Z,9.90
2023-04-26T07:46:03.288Z,10.00
2023-04-26T07:47:02.970Z,9.90
2023-04-26T07:48:03.614Z,9.90
2023-04-26T07:49:02.737Z,9.80
2023-04-26T07:50:03.361Z,9.80
2023-04-26T07:51:03.132Z,9.70
2023-04-26T07:52:02.676Z,9.70
2023-04-26T07:53:02.912Z,9.70
2023-04-26T07:54:03.430Z,9.70
2023-04-26T07:55:03.414Z,9.80
2023-04-26T07:56:03.041Z,9.90
2023-04-26T07:57:03.138Z,9.90
2023-04-26T07:58:02.791Z,10.00
2023-04-26T07:59:02.861Z,10.10
2023-04-26T08:00:03.367Z,10.10
2023-04-26T08:01:03.024Z,10.20
2023-04-26T08:02:02.724Z,10.20
2023-04-26T08:03:02.967Z,10.20
2023-04-26T08:04:02.987Z,10.20
2023-04-26T08:05:03.436Z,10.10
2023-04-26T08:06:03.526Z,10.10
2023-04-26T08:07:03.065Z,10.00
2023-04-26T08:08:02.839Z,10.00
2023-04-26T08:09:03.336Z,9.90
2023-04-26T08:10:02.903Z,9.80
2023-04-26T08:11:03.034Z,9.70
2023-04-26T08:12:02.818Z,9.60
2023-04-26T08:13:02.750Z,9.50
2023-04-26T08:14:02.844Z,9.40
2023-04-26T08:15:03.571Z,9.40
2023-04-26T08:16:03.198Z,9.30
2023-04-26T08:17:03.354Z,9.20
2023-04-26T08:18:03.571Z,9.10
2023-04-26T08:19:03.503Z,9.10
2023-04-26T08:20:03.605Z,9.10
2023-04-26T08:21:03.489Z,9.10
2023-04-26T08:22:03.654Z,9.20
2023-04-26T08:23:03.100Z,9.20
2023-04-26T08:24:02.792Z,9.30
2023-04-26T08:25:03.426Z,9.40
2023-04-26T08:26:03.008Z,9.50
2023-04-26T08:27:03.100Z,9.60
2023-04-26T08:28:03.296Z,9.80
2023-04-26T08:29:03.076Z,9.80
2023-04-26T08:30:02.753Z,9.90
2023-04-26T08:31:03.446Z,10.00
2023-04-26T08:32:03.174Z,10.10
2023-04-26T08:33:02.763Z,10.20
2023-04-26T08:34:03.454Z,10.30
2023-04-26T08:35:02.894Z,10.30
2023-04-26T08:36:03.614Z,10.30
2023-04-26T08:37:03.207Z,10.20
2023-04-26T08:38:03.279Z,10.20
2023-04-26T08:39:02.809Z,10.20
2023-04-26T08:40:03.590Z,10.20
2023-04-26T08:41:03.684Z,10.30
2023-04-26T08:42:02.989Z,10.30
2023-04-26T08:43:03.550Z,10.40
2023-04-26T08:44:03.136Z,10.40
2023-04-26T08:45:03.159Z,10.50
2023-04-26T08:46:02.687Z,10.60
2023-04-26T08:47:02.757Z,10.70
2023-04-26T08:48:04.519Z,10.70
2023-04-26T08:49:02.914Z,10.80
2023-04-26T08:50:03.555Z,10.80
2023-04-26T08:51:03.146Z,10.70
2023-04-26T08:52:02.680Z,10.70
2023-04-26T08:53:02.911Z,10.60
2023-04-26T08:54:04.821Z,10.50
2023-04-26T08:55:03.078Z,10.50
2023-04-26T08:56:02.653Z,10.40
2023-04-26T08:57:03.175Z,10.40
2023-04-26T08:58:03.186Z,10.30
2023-04-26T08:59:02.841Z,10.20
2023-04-26T09:00:03.353Z,10.10
2023-04-26T09:01:03.014Z,10.00
2023-04-26T09:02:03.109Z,10.00
2023-04-26T09:03:02.796Z,9.90
2023-04-26T09:04:03.913Z,9.90
2023-04-26T09:05:03.742Z,9.80
2023-04-26T09:06:05.948Z,9.80
2023-04-26T09:07:02.837Z,9.90
2023-04-26T09:08:02.816Z,9.90
2023-04-26T09:09:02.853Z,10.00
2023-04-26T09:10:03.236Z,10.00
2023-04-26T09:11:02.809Z,10.00
2023-04-26T09:12:03.376Z,10.00
2023-04-26T09:13:03.041Z,10.00
2023-04-26T09:14:03.316Z,10.10
2023-04-26T09:15:03.051Z,10.10
2023-04-26T09:16:04.915Z,10.20
2023-04-26T09:17:03.481Z,10.20
2023-04-26T09:18:03.227Z,10.30
2023-04-26T09:19:03.342Z,10.30
2023-04-26T09:20:04.104Z,10.40
2023-04-26T09:21:03.300Z,10.50
2023-04-26T09:22:02.902Z,10.50
2023-04-26T09:23:03.646Z,10.60
2023-04-26T09:24:03.708Z,10.80
2023-04-26T09:25:03.309Z,10.90
2023-04-26T09:26:03.035Z,10.90
2023-04-26T09:27:02.958Z,11.00
2023-04-26T09:28:03.479Z,11.00
2023-04-26T09:29:03.304Z,11.00
2023-04-26T09:30:02.812Z,11.00
2023-04-26T09:31:03.578Z,11.00
2023-04-26T09:32:03.260Z,10.90
2023-04-26T09:33:02.896Z,10.90
2023-04-26T09:34:03.040Z,10.80
2023-04-26T09:35:02.707Z,10.70
2023-04-26T09:36:02.693Z,10.70
2023-04-26T09:37:03.354Z,10.60
2023-04-26T09:38:07.782Z,10.60
2023-04-26T09:39:03.099Z,10.50
2023-04-26T09:40:03.546Z,10.40
2023-04-26T09:41:03.061Z,10.40
2023-04-26T09:42:02.871Z,10.30
2023-04-26T09:43:02.870Z,10.20
2023-04-26T09:44:03.545Z,10.10
2023-04-26T09:45:03.256Z,10.10
2023-04-26T09:46:03.350Z,10.00
2023-04-26T09:47:03.020Z,9.90
2023-04-26T09:48:02.910Z,9.90
2023-04-26T09:49:03.519Z,9.80
2023-04-26T09:50:03.131Z,9.80
2023-04-26T09:51:03.383Z,9.80
2023-04-26T09:52:02.844Z,9.80
2023-04-26T09:53:03.648Z,9.90
2023-04-26T09:54:03.201Z,10.00
2023-04-26T09:55:03.254Z,10.00
2023-04-26T09:56:02.801Z,10.10
2023-04-26T09:57:03.357Z,10.20
2023-04-26T09:58:03.045Z,10.30
2023-04-26T09:59:02.641Z,10.40
2023-04-26T10:00:03.334Z,10.50
2023-04-26T10:01:03.187Z,10.50
2023-04-26T10:02:03.000Z,10.60
2023-04-26T10:03:02.696Z,10.60
2023-04-26T10:04:03.329Z,10.60
2023-04-26T10:05:03.285Z,10.70
2023-04-26T10:06:03.261Z,10.60
2023-04-26T10:07:02.922Z,10.70
2023-04-26T10:08:03.427Z,10.70
2023-04-26T10:09:03.122Z,10.80
2023-04-26T10:10:03.583Z,10.80
2023-04-26T10:11:03.156Z,10.80
2023-04-26T10:12:02.970Z,10.80
2023-04-26T10:13:03.172Z,10.90
2023-04-26T10:14:02.745Z,10.80
2023-04-26T10:15:03.491Z,10.80
2023-04-26T10:16:03.534Z,10.80
2023-04-26T10:17:03.406Z,10.80
2023-04-26T10:18:03.391Z,10.80
2023-04-26T10:19:03.392Z,10.80
2023-04-26T10:20:03.111Z,10.80
2023-04-26T10:21:02.915Z,10.70
2023-04-26T10:22:03.556Z,10.80
2023-04-26T10:23:03.144Z,10.80
2023-04-26T10:24:02.731Z,10.80
2023-04-26T10:25:03.226Z,10.90
2023-04-26T10:26:03.431Z,10.90
2023-04-26T10:27:03.375Z,10.90
2023-04-26T10:28:03.352Z,10.90
2023-04-26T10:29:03.494Z,10.90
2023-04-26T10:30:03.249Z,10.90
2023-04-26T10:31:03.052Z,10.80
2023-04-26T10:32:03.152Z,10.80
2023-04-26T10:33:03.250Z,10.70
2023-04-26T10:34:02.887Z,10.60
2023-04-26T10:35:03.467Z,10.60
2023-04-26T10:36:03.332Z,10.50
2023-04-26T10:37:02.744Z,10.50
2023-04-26T10:38:02.744Z,10.50
2023-04-26T10:39:02.754Z,10.50
2023-04-26T10:40:02.805Z,10.50
2023-04-26T10:41:03.026Z,10.60
2023-04-26T10:42:02.730Z,10.60
2023-04-26T10:43:03.451Z,10.70
2023-04-26T10:44:03.032Z,10.80
2023-04-26T10:45:02.994Z,10.80
2023-04-26T10:46:03.611Z,10.90
2023-04-26T10:47:03.428Z,10.90
2023-04-26T10:48:03.338Z,10.90
2023-04-26T10:49:02.831Z,10.90
2023-04-26T10:50:04.976Z,10.90
2023-04-26T10:51:03.142Z,10.90
2023-04-26T10:52:02.955Z,10.90
2023-04-26T10:53:03.615Z,10.90
2023-04-26T10:54:03.384Z,10.90
2023-04-26T10:55:03.315Z,10.90
2023-04-26T10:56:03.592Z,10.80
2023-04-26T10:57:03.219Z,10.80
2023-04-26T10:58:02.793Z,10.70
2023-04-26T10:59:04.896Z,10.70
2023-04-26T11:00:02.745Z,10.70
2023-04-26T11:01:03.385Z,10.60
2023-04-26T11:02:03.427Z,10.60
2023-04-26T11:03:03.514Z,10.50
2023-04-26T11:04:03.081Z,10.50
2023-04-26T11:05:02.946Z,10.40
2023-04-26T11:06:02.778Z,10.40
2023-04-26T11:07:03.400Z,10.30
2023-04-26T11:08:02.868Z,10.30
2023-04-26T11:09:03.545Z,10.30
2023-04-26T11:10:03.263Z,10.30
2023-04-26T11:11:03.347Z,10.30
2023-04-26T11:12:02.912Z,10.30
2023-04-26T11:13:02.943Z,10.30
2023-04-26T11:14:02.905Z,10.30
2023-04-26T11:15:03.477Z,10.30
2023-04-26T11:16:03.603Z,10.30
2023-04-26T11:17:02.981Z,10.30
2023-04-26T11:18:03.243Z,10.40
2023-04-26T11:19:02.788Z,10.40
2023-04-26T11:20:02.887Z,10.40
2023-04-26T11:21:03.517Z,10.50
2023-04-26T11:22:03.197Z,10.50
2023-04-26T11:23:03.327Z,10.60
2023-04-26T11:24:03.401Z,10.60
2023-04-26T11:25:03.079Z,10.70
2023-04-26T11:26:03.661Z,10.80
2023-04-26T11:27:03.323Z,10.80
2023-04-26T11:28:03.448Z,10.90
2023-04-26T11:29:02.937Z,11.00
2023-04-26T11:30:02.977Z,11.10
2023-04-26T11:31:03.104Z,11.10
2023-04-26T11:32:02.648Z,11.10
2023-04-26T11:33:03.320Z,11.20
2023-04-26T11:34:03.020Z,11.20
2023-04-26T11:35:02.664Z,11.20
2023-04-26T11:36:03.154Z,11.20
2023-04-26T11:37:02.939Z,11.20
2023-04-26T11:38:03.509Z,11.20
2023-04-26T11:39:02.938Z,11.20
2023-04-26T11:40:03.632Z,11.20
2023-04-26T11:41:03.610Z,11.10
2023-04-26T11:42:03.585Z,11.10
2023-04-26T11:43:03.281Z,11.10
2023-04-26T11:44:03.424Z,11.00
2023-04-26T11:45:03.224Z,10.90
2023-04-26T11:46:02.752Z,10.90
2023-04-26T11:47:02.849Z,10.80
2023-04-26T11:48:02.764Z,10.80
2023-04-26T11:49:03.072Z,10.70
2023-04-26T11:50:03.671Z,10.70
2023-04-26T11:51:03.264Z,10.60
2023-04-26T11:52:02.799Z,10.60
2023-04-26T11:53:03.317Z,10.60
2023-04-26T11:54:02.994Z,10.50
2023-04-26T11:55:02.649Z,10.50
2023-04-26T11:56:03.252Z,10.50
2023-04-26T11:57:02.822Z,10.50
2023-04-26T11:58:03.459Z,10.40
2023-04-26T11:59:02.673Z,10.40
2023-04-26T12:00:03.299Z,10.50
2023-04-26T12:01:03.358Z,10.50
2023-04-26T12:02:03.330Z,10.50
2023-04-26T12:03:03.537Z,10.60
2023-04-26T12:04:03.563Z,10.60
2023-04-26T12:05:03.642Z,10.70
2023-04-26T12:06:03.678Z,10.70
2023-04-26T12:07:03.145Z,10.80
2023-04-26T12:08:02.844Z,10.80
2023-04-26T12:09:02.749Z,10.90
2023-04-26T12:10:03.374Z,10.90
2023-04-26T12:11:03.600Z,10.90
2023-04-26T12:12:03.251Z,10.90
2023-04-26T12:13:03.236Z,10.90
2023-04-26T12:14:02.966Z,11.00
2023-04-26T12:15:03.673Z,11.00
2023-04-26T12:16:07.262Z,10.90
2023-04-26T12:17:03.810Z,10.90
2023-04-26T12:18:03.763Z,10.90
2023-04-26T12:19:02.730Z,11.00
2023-04-26T12:20:02.721Z,11.00
2023-04-26T12:21:03.340Z,11.00
2023-04-26T12:22:02.641Z,11.00
2023-04-26T12:23:03.374Z,11.10
2023-04-26T12:24:02.838Z,11.10
2023-04-26T12:25:03.422Z,11.20
2023-04-26T12:26:03.480Z,11.20
2023-04-26T12:27:03.438Z,11.20
2023-04-26T12:28:03.110Z,11.30
2023-04-26T12:29:02.590Z,11.30
2023-04-26T12:30:02.716Z,11.40
2023-04-26T12:31:02.655Z,11.40
2023-04-26T12:32:03.705Z,11.40
2023-04-26T12:33:15.320Z,11.40
2023-04-26T12:34:03.573Z,11.50
2023-04-26T12:35:03.108Z,11.50
2023-04-26T12:36:02.978Z,11.50
2023-04-26T12:37:02.737Z,11.50
2023-04-26T12:38:02.736Z,11.50
2023-04-26T12:39:02.945Z,11.50
2023-04-26T12:40:03.612Z,11.50
2023-04-26T12:41:03.195Z,11.50
2023-04-26T12:42:02.802Z,11.40
2023-04-26T12:43:03.336Z,11.40
2023-04-26T12:44:02.858Z,11.40
2023-04-26T12:45:03.499Z,11.40
2023-04-26T12:46:02.682Z,11.30
2023-04-26T12:47:02.919Z,11.30
2023-04-26T12:48:03.615Z,11.30
2023-04-26T12:49:02.909Z,11.30
2023-04-26T12:50:03.491Z,11.30
2023-04-26T12:51:03.090Z,11.30
2023-04-26T12:52:02.831Z,11.30
2023-04-26T12:53:03.362Z,11.30
2023-04-26T12:54:02.907Z,11.30
2023-04-26T12:55:03.512Z,11.30
2023-04-26T12:56:02.631Z,11.30
2023-04-26T12:57:03.306Z,11.30
2023-04-26T12:58:03.262Z,11.30
2023-04-26T12:59:02.985Z,11.30
2023-04-26T13:00:03.408Z,11.30
2023-04-26T13:01:03.117Z,11.30
2023-04-26T13:02:02.659Z,11.30
2023-04-26T13:03:03.380Z,11.40
2023-04-26T13:04:02.864Z,11.30
2023-04-26T13:05:02.888Z,11.40
2023-04-26T13:06:03.639Z,11.40